EGCC/MAN METAR and TAF weather

Enter ICAO airport designator
Station Type Date Time Source
EGCC METAR 2021/08/01 16:20 UTC NOAA

EGCC 011620Z AUTO 05006KT 9999 BKN044 17/10 Q1013 NOSIG


Station Type Date Time Source
EGCC Decoded METAR 2021/08/01 16:20 UTC NOAA

Manchester Airport, United Kingdom (EGCC) 53-21N 002-17W 0M
Aug 01, 2021 - 12:20 PM EDT / 2021.08.01 1620 UTC
Wind: from the NE (050 degrees) at 7 MPH (6 KT):0
Visibility: greater than 7 mile(s):0
Sky conditions: mostly cloudy
Temperature: 62 F (17 C)
Dew Point: 50 F (10 C)
Relative Humidity: 63%
Pressure (altimeter): 29.91 in. Hg (1013 hPa)
ob: EGCC 011620Z AUTO 05006KT 9999 BKN044 17/10 Q1013 NOSIG
cycle: 16

Station Type Date Time Source
EGCC TAF 2021/08/01 12:09 UTC NOAA

TAF EGCC 011101Z 0112/0218 06004KT 9999 SCT025 PROB30
TEMPO 0112/0118 8000 -SHRA PROB30
TEMPO 0205/0209 8000 -RA PROB30
TEMPO 0209/0216 6000 SHRA

Example: see airport list